createdAt,value
2023-03-14T00:02:31.234Z,15.10
2023-03-14T00:05:21.418Z,15.10
2023-03-14T00:08:09.919Z,14.90
2023-03-14T00:10:59.009Z,14.90
2023-03-14T00:13:49.639Z,14.80
2023-03-14T00:16:38.103Z,14.80
2023-03-14T00:19:26.620Z,14.90
2023-03-14T00:22:16.467Z,14.90
2023-03-14T00:25:05.665Z,14.90
2023-03-14T00:27:54.109Z,14.90
2023-03-14T00:30:42.547Z,15.00
2023-03-14T00:33:31.178Z,15.10
2023-03-14T00:36:21.245Z,15.10
2023-03-14T00:39:11.081Z,15.10
2023-03-14T00:41:59.526Z,15.00
2023-03-14T00:44:48.098Z,14.90
2023-03-14T00:47:36.666Z,14.80
2023-03-14T00:50:25.079Z,14.70
2023-03-14T00:53:13.947Z,14.70
2023-03-14T00:56:07.145Z,14.60
2023-03-14T00:58:57.187Z,14.60
2023-03-14T01:01:45.715Z,14.60
2023-03-14T01:04:34.162Z,14.60
2023-03-14T01:07:22.605Z,14.60
2023-03-14T01:10:12.476Z,14.60
2023-03-14T01:13:02.438Z,14.20
2023-03-14T01:15:50.901Z,14.40
2023-03-14T01:18:40.853Z,14.50
2023-03-14T01:21:31.515Z,14.50
2023-03-14T01:24:19.953Z,14.50
2023-03-14T01:27:08.406Z,14.50
2023-03-14T01:29:58.217Z,14.50
2023-03-14T01:32:46.768Z,14.60
2023-03-14T01:35:35.330Z,14.30
2023-03-14T01:38:23.798Z,14.60
2023-03-14T01:41:17.278Z,14.50
2023-03-14T01:44:05.868Z,14.40
2023-03-14T01:46:55.766Z,14.40
2023-03-14T01:49:45.177Z,14.40
2023-03-14T01:52:38.220Z,14.40
2023-03-14T01:55:27.745Z,14.30
2023-03-14T01:58:18.858Z,14.30
2023-03-14T02:01:08.991Z,14.20
2023-03-14T02:04:04.318Z,14.10
2023-03-14T02:06:58.358Z,14.10
2023-03-14T02:09:47.055Z,14.10
2023-03-14T02:12:37.014Z,14.20
2023-03-14T02:15:25.761Z,14.20
2023-03-14T02:18:16.683Z,14.00
2023-03-14T02:21:14.534Z,14.00
2023-03-14T02:24:11.593Z,14.00
2023-03-14T02:27:11.655Z,14.00
2023-03-14T02:30:03.201Z,14.10
2023-03-14T02:32:56.178Z,14.00
2023-03-14T02:35:48.747Z,14.00
2023-03-14T02:38:41.994Z,13.90
2023-03-14T02:41:31.922Z,13.90
2023-03-14T02:44:21.840Z,13.90
2023-03-14T02:47:10.350Z,13.90
2023-03-14T02:50:04.199Z,13.90
2023-03-14T02:52:53.068Z,13.90
2023-03-14T02:55:41.540Z,13.90
2023-03-14T02:58:30.704Z,13.90
2023-03-14T03:01:20.641Z,13.90
2023-03-14T03:04:09.225Z,13.90
2023-03-14T03:06:57.632Z,13.90
2023-03-14T03:09:46.326Z,13.80
2023-03-14T03:12:34.781Z,13.80
2023-03-14T03:15:23.222Z,13.70
2023-03-14T03:18:13.036Z,13.70
2023-03-14T03:21:03.358Z,13.60
2023-03-14T03:23:52.215Z,13.60
2023-03-14T03:26:40.656Z,13.60
2023-03-14T03:29:29.114Z,13.60
2023-03-14T03:32:17.527Z,13.40
2023-03-14T03:35:08.645Z,13.50
2023-03-14T03:37:57.264Z,13.50
2023-03-14T03:40:46.143Z,13.40
2023-03-14T03:43:34.710Z,13.40
2023-03-14T03:46:23.344Z,13.20
2023-03-14T03:49:11.949Z,13.20
2023-03-14T03:52:02.345Z,13.20
2023-03-14T03:54:50.848Z,13.10
2023-03-14T03:57:39.320Z,13.40
2023-03-14T04:00:27.823Z,12.60
2023-03-14T04:03:16.277Z,12.20
2023-03-14T04:06:09.409Z,12.00
2023-03-14T04:08:59.518Z,12.10
2023-03-14T04:11:47.964Z,12.20
2023-03-14T04:14:36.458Z,12.40
2023-03-14T04:17:24.939Z,12.30
2023-03-14T04:20:14.300Z,12.40
2023-03-14T04:23:02.765Z,12.50
2023-03-14T04:25:52.855Z,12.50
2023-03-14T04:28:41.276Z,12.50
2023-03-14T04:31:29.825Z,12.80
2023-03-14T04:34:18.348Z,12.70
2023-03-14T04:37:06.846Z,12.60
2023-03-14T04:39:55.282Z,12.70
2023-03-14T04:42:45.216Z,12.50
2023-03-14T04:45:33.761Z,12.60
2023-03-14T04:48:22.472Z,12.60
2023-03-14T04:51:11.014Z,12.80
2023-03-14T04:53:59.420Z,12.80
2023-03-14T04:56:47.879Z,12.90
2023-03-14T04:59:37.745Z,13.10
2023-03-14T05:05:15.029Z,13.20
2023-03-14T05:08:03.656Z,13.30
2023-03-14T05:10:55.180Z,13.50
2023-03-14T05:13:43.695Z,13.50
2023-03-14T05:16:33.654Z,13.50
2023-03-14T05:19:22.174Z,13.50
2023-03-14T05:22:10.606Z,13.50
2023-03-14T05:25:00.028Z,13.40
2023-03-14T05:27:48.528Z,13.40
2023-03-14T05:30:36.964Z,13.50
2023-03-14T05:33:26.782Z,13.70
2023-03-14T05:36:15.330Z,13.50
2023-03-14T05:39:03.824Z,13.40
2023-03-14T05:41:52.262Z,13.30
2023-03-14T05:44:40.752Z,13.20
2023-03-14T05:47:29.763Z,14.20
2023-03-14T05:50:19.844Z,13.20
2023-03-14T05:53:08.305Z,13.30
2023-03-14T05:55:58.240Z,13.30
2023-03-14T05:58:46.922Z,13.40
2023-03-14T06:01:36.566Z,13.40
2023-03-14T06:04:26.996Z,13.40
2023-03-14T06:07:16.866Z,13.50
2023-03-14T06:10:06.120Z,13.50
2023-03-14T06:12:54.703Z,13.60
2023-03-14T06:15:43.349Z,13.60
2023-03-14T06:18:31.856Z,13.60
2023-03-14T06:21:20.621Z,13.60
2023-03-14T06:24:10.695Z,13.60
2023-03-14T06:26:59.211Z,13.60
2023-03-14T06:29:47.686Z,13.70
2023-03-14T06:32:36.191Z,13.70
2023-03-14T06:35:25.157Z,13.80
2023-03-14T06:38:13.597Z,13.80
2023-03-14T06:41:07.462Z,13.80
2023-03-14T06:46:45.300Z,13.70
2023-03-14T06:49:33.872Z,13.70
2023-03-14T06:52:22.321Z,13.70
2023-03-14T06:55:11.122Z,13.80
2023-03-14T06:58:00.951Z,13.80
2023-03-14T07:00:49.418Z,13.80
2023-03-14T07:03:37.878Z,13.60
2023-03-14T07:06:26.495Z,13.70
2023-03-14T07:09:15.180Z,13.60
2023-03-14T07:12:05.183Z,13.40
2023-03-14T07:14:55.636Z,13.20
2023-03-14T07:17:44.844Z,13.30
2023-03-14T07:20:33.660Z,13.20
2023-03-14T07:23:22.113Z,13.20
2023-03-14T07:26:10.526Z,13.00
2023-03-14T07:28:59.018Z,13.00
2023-03-14T07:31:48.876Z,13.00
2023-03-14T07:34:37.437Z,13.00
2023-03-14T07:37:25.989Z,12.70
2023-03-14T07:40:16.076Z,12.70
2023-03-14T07:43:04.593Z,12.60
2023-03-14T07:45:58.961Z,12.70
2023-03-14T07:48:49.212Z,12.80
2023-03-14T07:51:37.730Z,12.90
2023-03-14T07:54:26.267Z,13.00
2023-03-14T07:57:14.706Z,13.10
2023-03-14T08:00:04.118Z,13.20
2023-03-14T08:02:52.730Z,13.50
2023-03-14T08:05:43.208Z,13.40
2023-03-14T08:08:31.726Z,13.60
2023-03-14T08:11:20.236Z,13.90
2023-03-14T08:14:08.836Z,14.00
2023-03-14T08:16:57.186Z,14.20
2023-03-14T08:19:45.640Z,14.40
2023-03-14T08:22:35.606Z,14.30
2023-03-14T08:25:24.091Z,14.10
2023-03-14T08:28:12.624Z,14.10
2023-03-14T08:31:02.060Z,14.40
2023-03-14T08:33:53.116Z,14.60
2023-03-14T08:36:41.954Z,14.90
2023-03-14T08:39:31.778Z,15.00
2023-03-14T08:42:20.278Z,15.00
2023-03-14T08:45:10.154Z,15.20
2023-03-14T08:48:00.199Z,15.30
2023-03-14T08:50:49.040Z,15.40
2023-03-14T08:53:37.509Z,15.30
2023-03-14T08:56:27.339Z,15.50
2023-03-14T08:59:15.829Z,15.50
2023-03-14T09:02:05.279Z,15.60
2023-03-14T09:07:43.621Z,15.70
2023-03-14T09:10:32.204Z,15.90
2023-03-14T09:13:22.074Z,16.10
2023-03-14T09:16:11.549Z,16.30
2023-03-14T09:19:00.772Z,16.40
2023-03-14T09:21:49.742Z,16.30
2023-03-14T09:24:38.249Z,16.20
2023-03-14T09:27:26.793Z,16.20
2023-03-14T09:30:16.891Z,16.20
2023-03-14T09:33:05.420Z,16.10
2023-03-14T09:35:53.929Z,16.10
2023-03-14T09:38:42.804Z,16.00
2023-03-14T09:41:36.151Z,16.00
2023-03-14T09:44:29.044Z,15.90
2023-03-14T09:47:20.974Z,15.70
2023-03-14T09:50:15.380Z,15.60
2023-03-14T09:53:08.255Z,15.60
2023-03-14T09:55:59.888Z,15.60
2023-03-14T09:58:53.654Z,15.60
2023-03-14T10:01:42.612Z,15.60
2023-03-14T10:04:34.086Z,15.70
2023-03-14T10:13:16.555Z,16.70
2023-03-14T10:16:07.878Z,17.00
2023-03-14T10:19:02.985Z,17.20
2023-03-14T10:21:55.378Z,17.20
2023-03-14T10:24:48.319Z,17.10
2023-03-14T10:27:37.863Z,17.20
2023-03-14T10:30:35.076Z,17.20
2023-03-14T10:33:25.817Z,17.10
2023-03-14T10:36:26.888Z,17.00
2023-03-14T10:39:32.258Z,17.10
2023-03-14T10:42:26.325Z,17.10
2023-03-14T10:45:31.487Z,17.20
2023-03-14T10:48:25.103Z,17.40
2023-03-14T10:51:20.499Z,17.70
2023-03-14T10:54:21.186Z,18.10
2023-03-14T10:57:13.421Z,18.40
2023-03-14T11:00:05.263Z,18.70
2023-03-14T11:03:10.746Z,18.80
2023-03-14T11:08:54.365Z,18.90
2023-03-14T11:11:47.392Z,18.70
2023-03-14T11:14:43.029Z,18.60
2023-03-14T11:20:37.795Z,18.50
2023-03-14T11:23:34.307Z,18.30
2023-03-14T11:26:31.518Z,18.10
2023-03-14T11:29:25.568Z,17.90
2023-03-14T11:32:21.587Z,17.70
2023-03-14T11:55:32.209Z,18.40
2023-03-14T11:58:25.561Z,18.90
2023-03-14T12:01:18.906Z,19.10
2023-03-14T12:04:15.279Z,19.00
2023-03-14T12:07:11.520Z,18.90
2023-03-14T12:10:00.351Z,19.00
2023-03-14T12:12:50.136Z,19.30
2023-03-14T12:15:44.650Z,19.80
2023-03-14T12:18:37.235Z,20.00
2023-03-14T12:30:12.279Z,19.00
2023-03-14T12:33:34.657Z,19.10
2023-03-14T12:36:56.651Z,19.30
2023-03-14T12:39:57.988Z,19.20
2023-03-14T12:42:56.898Z,19.10
2023-03-14T12:46:17.555Z,19.00
2023-03-14T12:49:10.563Z,19.10
2023-03-14T12:52:01.850Z,19.50
2023-03-14T12:54:58.484Z,19.40
2023-03-14T12:57:50.595Z,19.30
2023-03-14T13:00:42.755Z,19.10
2023-03-14T13:03:42.433Z,19.10
2023-03-14T13:06:54.723Z,19.10
2023-03-14T13:10:12.070Z,19.10
2023-03-14T13:13:05.793Z,18.80
2023-03-14T13:15:59.422Z,18.40
2023-03-14T13:18:49.079Z,18.10
2023-03-14T13:21:39.513Z,17.90
2023-03-14T13:24:29.416Z,18.10
2023-03-14T13:27:24.880Z,18.30
2023-03-14T13:30:23.278Z,18.30
2023-03-14T13:33:16.230Z,18.80
2023-03-14T13:36:06.561Z,19.20
2023-03-14T13:38:58.738Z,19.50
2023-03-14T13:44:41.841Z,20.00
2023-03-14T13:47:30.720Z,20.70
2023-03-14T13:50:20.356Z,20.90
2023-03-14T13:53:13.703Z,20.70
2023-03-14T13:58:53.391Z,20.60
2023-03-14T14:01:43.395Z,20.50
2023-03-14T14:04:36.243Z,20.10
2023-03-14T14:07:25.242Z,20.00
2023-03-14T14:10:15.900Z,19.90
2023-03-14T14:13:06.540Z,19.60
2023-03-14T14:15:56.712Z,19.40
2023-03-14T14:18:47.005Z,19.10
2023-03-14T14:21:35.597Z,18.60
2023-03-14T14:24:26.716Z,18.40
2023-03-14T14:27:17.812Z,18.30
2023-03-14T14:30:08.492Z,18.30
2023-03-14T14:33:14.314Z,18.20
2023-03-14T14:36:04.369Z,18.20
2023-03-14T14:38:59.364Z,18.20
2023-03-14T14:41:50.800Z,18.00
2023-03-14T14:44:41.244Z,18.00
2023-03-14T14:47:31.265Z,17.90
2023-03-14T14:50:30.831Z,17.90
2023-03-14T14:53:26.204Z,17.90
2023-03-14T14:56:20.233Z,18.00
2023-03-14T14:59:21.265Z,18.00
2023-03-14T15:02:29.581Z,18.00
2023-03-14T15:05:19.844Z,18.10
2023-03-14T15:08:11.593Z,18.10
2023-03-14T15:11:01.731Z,18.20
2023-03-14T15:13:50.223Z,18.40
2023-03-14T15:16:38.874Z,18.30
2023-03-14T15:19:30.068Z,18.40
2023-03-14T15:22:18.583Z,18.60
2023-03-14T15:25:09.645Z,18.90
2023-03-14T15:28:01.004Z,18.80
2023-03-14T15:30:49.933Z,18.70
2023-03-14T15:33:38.445Z,18.70
2023-03-14T15:36:28.793Z,18.70
2023-03-14T15:39:17.280Z,18.70
2023-03-14T15:42:06.059Z,18.60
2023-03-14T15:44:55.933Z,18.50
2023-03-14T15:47:44.362Z,18.50
2023-03-14T15:50:32.890Z,18.50
2023-03-14T15:53:21.349Z,18.40
2023-03-14T15:56:14.107Z,18.40
2023-03-14T15:59:02.746Z,18.30
2023-03-14T16:01:52.758Z,18.20
2023-03-14T16:07:31.458Z,18.10
2023-03-14T16:13:09.858Z,18.00
2023-03-14T16:16:00.033Z,18.00
2023-03-14T16:18:50.111Z,17.90
2023-03-14T16:21:38.991Z,17.80
2023-03-14T16:24:27.675Z,17.40
2023-03-14T16:27:16.312Z,17.30
2023-03-14T16:30:05.420Z,17.30
2023-03-14T16:32:53.872Z,17.20
2023-03-14T16:35:43.954Z,17.20
2023-03-14T16:38:33.998Z,17.30
2023-03-14T16:41:23.146Z,17.30
2023-03-14T16:44:11.698Z,17.30
2023-03-14T16:47:00.121Z,17.30
2023-03-14T16:49:48.617Z,17.20
2023-03-14T16:52:38.528Z,17.20
2023-03-14T16:55:26.957Z,17.10
2023-03-14T16:58:15.461Z,17.10
2023-03-14T17:01:10.353Z,17.00
2023-03-14T17:03:59.296Z,16.80
2023-03-14T17:06:47.804Z,16.70
2023-03-14T17:09:37.681Z,16.70
2023-03-14T17:12:26.122Z,16.70
2023-03-14T17:15:14.636Z,16.80
2023-03-14T17:18:04.250Z,16.80
2023-03-14T17:20:53.139Z,16.70
2023-03-14T17:23:41.713Z,16.70
2023-03-14T17:26:31.617Z,16.60
2023-03-14T17:29:20.080Z,16.50
2023-03-14T17:32:08.635Z,16.50
2023-03-14T17:34:57.175Z,16.60
2023-03-14T17:37:45.688Z,16.60
2023-03-14T17:40:34.147Z,16.60
2023-03-14T17:43:24.036Z,16.60
2023-03-14T17:46:15.683Z,16.70
2023-03-14T17:49:04.258Z,16.80
2023-03-14T17:51:52.744Z,17.00
2023-03-14T17:54:41.417Z,16.70
2023-03-14T17:57:30.261Z,16.60
2023-03-14T18:00:23.188Z,16.60
2023-03-14T18:03:11.837Z,16.70
2023-03-14T18:06:00.326Z,16.70
2023-03-14T18:08:49.666Z,16.70
2023-03-14T18:11:38.152Z,16.70
2023-03-14T18:14:26.702Z,16.70
2023-03-14T18:17:16.599Z,16.70
2023-03-14T18:20:09.189Z,16.60
2023-03-14T18:22:57.770Z,16.60
2023-03-14T18:25:46.277Z,16.60
2023-03-14T18:28:34.929Z,16.60
2023-03-14T18:31:25.338Z,16.60
2023-03-14T18:34:15.356Z,16.60
2023-03-14T18:37:04.239Z,16.50
2023-03-14T18:39:52.677Z,16.50
2023-03-14T18:42:42.128Z,16.50
2023-03-14T18:45:31.880Z,16.50
2023-03-14T18:48:20.432Z,16.40
2023-03-14T18:51:11.607Z,16.50
2023-03-14T18:54:08.869Z,16.40
2023-03-14T18:57:00.190Z,16.50
2023-03-14T18:59:48.752Z,16.40
2023-03-14T19:02:37.557Z,16.40
2023-03-14T19:05:26.109Z,16.50
2023-03-14T19:08:16.195Z,16.50
2023-03-14T19:11:06.778Z,16.50
2023-03-14T19:13:56.909Z,16.50
2023-03-14T19:16:45.602Z,16.50
2023-03-14T19:19:34.400Z,16.50
2023-03-14T19:22:22.900Z,16.50
2023-03-14T19:25:13.499Z,16.20
2023-03-14T19:59:04.278Z,15.20
2023-03-14T20:01:54.784Z,14.90
2023-03-14T20:04:44.360Z,14.90
2023-03-14T20:07:34.209Z,14.70
2023-03-14T20:10:23.741Z,14.60
2023-03-14T20:13:21.341Z,14.30
2023-03-14T20:16:12.426Z,14.20
2023-03-14T20:19:00.921Z,14.00
2023-03-14T20:21:49.472Z,14.00
2023-03-14T20:24:38.059Z,13.90
2023-03-14T20:27:26.549Z,14.00
2023-03-14T20:30:21.044Z,14.40
2023-03-14T20:33:13.074Z,14.50
2023-03-14T20:36:01.843Z,14.40
2023-03-14T20:38:50.328Z,14.60
2023-03-14T20:41:41.986Z,14.60
2023-03-14T20:44:30.597Z,14.70
2023-03-14T20:47:19.034Z,14.50
2023-03-14T20:50:10.605Z,14.50
2023-03-14T20:52:59.217Z,14.60
2023-03-14T20:55:47.915Z,14.80
2023-03-14T20:58:36.513Z,14.50
2023-03-14T21:01:24.991Z,14.50
2023-03-14T21:04:13.541Z,14.70
2023-03-14T21:07:03.495Z,14.70
2023-03-14T21:12:41.048Z,15.10
2023-03-14T21:15:29.510Z,15.00
2023-03-14T21:18:18.185Z,14.70
2023-03-14T21:23:57.299Z,13.90
2023-03-14T21:26:46.712Z,14.00
2023-03-14T21:29:37.186Z,14.10
2023-03-14T21:32:26.188Z,14.00
2023-03-14T21:35:14.703Z,14.10
2023-03-14T21:38:03.334Z,14.10
2023-03-14T21:40:58.456Z,13.90
2023-03-14T21:43:46.979Z,14.10
2023-03-14T21:46:37.146Z,14.10
2023-03-14T21:49:25.847Z,13.90
2023-03-14T21:52:15.342Z,14.20
2023-03-14T21:55:04.426Z,14.50
2023-03-14T22:09:14.831Z,15.10
2023-03-14T22:12:03.531Z,15.20
2023-03-14T22:14:54.030Z,15.10
2023-03-14T22:17:42.602Z,15.10
2023-03-14T22:20:31.067Z,15.10
2023-03-14T22:23:19.707Z,15.20
2023-03-14T22:26:08.110Z,15.20
2023-03-14T22:28:56.598Z,15.20
2023-03-14T22:31:46.949Z,15.10
2023-03-14T22:34:36.055Z,15.10
2023-03-14T22:37:25.565Z,15.10
2023-03-14T22:40:14.706Z,15.10
2023-03-14T22:43:03.196Z,15.00
2023-03-14T22:46:00.571Z,15.00
2023-03-14T22:48:50.408Z,14.90
2023-03-14T22:51:38.872Z,14.90
2023-03-14T22:54:27.890Z,14.90
2023-03-14T22:57:16.325Z,14.80
2023-03-14T23:00:12.224Z,14.80
2023-03-14T23:03:00.906Z,14.80
2023-03-14T23:05:50.819Z,14.80
2023-03-14T23:08:39.240Z,14.80
2023-03-14T23:11:27.742Z,14.80
2023-03-14T23:14:16.260Z,14.70
2023-03-14T23:17:05.587Z,14.60
2023-03-14T23:19:54.812Z,14.60
2023-03-14T23:22:44.696Z,14.40
2023-03-14T23:25:36.002Z,14.40
2023-03-14T23:28:29.992Z,14.40
2023-03-14T23:31:18.561Z,14.30
2023-03-14T23:34:07.033Z,14.20
2023-03-14T23:36:55.669Z,14.10
2023-03-14T23:39:47.328Z,13.80
